Time;durP1;ratioP1;P1;durP2;ratioP2;P2;SDS_P1;SDS_P2;PMS_P1;PMS_P2;Temp;Humidity;BMP_temperature;BMP_pressure;BME280_temperature;BME280_humidity;BME280_pressure;Samples;Min_cycle;Max_cycle;Signal;HPM_P1;HPM_P2
2023/05/24 00:03:59;;;;;;;5.50;3.55;;;;;;;;;;10568447;27;20035;-78
2023/05/24 00:09:03;;;;;;;7.57;3.42;;;;;;;;;;10570232;27;20108;-78
2023/05/24 00:14:06;;;;;;;8.80;3.67;;;;;;;;;;10571775;27;20100;-78
2023/05/24 00:19:11;;;;;;;6.78;3.35;;;;;;;;;;10568337;27;20045;-79
2023/05/24 00:24:14;;;;;;;6.18;3.40;;;;;;;;;;10564207;27;20043;-78
2023/05/24 00:29:16;;;;;;;5.47;3.00;;;;;;;;;;10571459;27;20479;-77
2023/05/24 00:34:21;;;;;;;5.70;2.93;;;;;;;;;;10568097;27;20975;-79
2023/05/24 00:39:23;;;;;;;5.70;2.97;;;;;;;;;;10567732;27;20325;-78
2023/05/24 00:44:26;;;;;;;6.00;3.07;;;;;;;;;;10567840;27;20044;-79
2023/05/24 00:49:31;;;;;;;6.40;3.20;;;;;;;;;;10555096;27;20139;-79
2023/05/24 00:54:34;;;;;;;5.65;3.10;;;;;;;;;;10559205;27;20097;-78
2023/05/24 00:59:37;;;;;;;6.03;3.30;;;;;;;;;;10565843;27;20507;-78
2023/05/24 01:04:41;;;;;;;6.25;3.80;;;;;;;;;;10560524;27;20124;-78
2023/05/24 01:09:51;;;;;;;5.70;3.30;;;;;;;;;;10559368;27;20051;-78
2023/05/24 01:14:59;;;;;;;7.60;3.42;;;;;;;;;;10563868;27;20040;-78
2023/05/24 01:20:06;;;;;;;7.10;3.78;;;;;;;;;;10572426;27;20050;-79
2023/05/24 01:25:12;;;;;;;7.30;3.95;;;;;;;;;;10564117;27;20109;-78
2023/05/24 01:30:16;;;;;;;7.60;3.67;;;;;;;;;;10563383;27;20556;-77
2023/05/24 01:35:19;;;;;;;7.18;3.45;;;;;;;;;;10573034;27;20031;-77
2023/05/24 01:40:22;;;;;;;8.07;3.60;;;;;;;;;;10570827;27;20053;-77
2023/05/24 01:45:29;;;;;;;7.70;4.30;;;;;;;;;;10564588;27;20031;-76
2023/05/24 01:50:34;;;;;;;11.93;3.80;;;;;;;;;;10554432;27;20039;-78
2023/05/24 01:55:37;;;;;;;8.32;3.97;;;;;;;;;;10568265;27;20039;-78
2023/05/24 02:00:43;;;;;;;6.03;3.50;;;;;;;;;;10568086;27;20114;-78
2023/05/24 02:05:47;;;;;;;6.45;3.45;;;;;;;;;;10579137;27;20305;-78
2023/05/24 02:10:49;;;;;;;8.00;3.80;;;;;;;;;;10575724;27;20039;-78
2023/05/24 02:15:53;;;;;;;7.30;3.63;;;;;;;;;;10575980;27;20225;-77
2023/05/24 02:20:56;;;;;;;8.52;3.72;;;;;;;;;;10568132;27;20546;-79
2023/05/24 02:25:58;;;;;;;7.32;3.60;;;;;;;;;;10569896;27;20034;-77
2023/05/24 02:31:03;;;;;;;9.00;4.13;;;;;;;;;;10553622;28;20043;-78
2023/05/24 02:36:06;;;;;;;9.00;3.80;;;;;;;;;;10562720;27;20058;-77
2023/05/24 02:41:10;;;;;;;8.57;4.15;;;;;;;;;;10587736;27;20043;-78
2023/05/24 02:46:15;;;;;;;8.50;3.78;;;;;;;;;;10581010;27;20400;-77
2023/05/24 02:51:18;;;;;;;7.93;3.90;;;;;;;;;;10574822;27;20044;-77
2023/05/24 02:56:21;;;;;;;6.80;3.88;;;;;;;;;;10587143;27;20027;-78
2023/05/24 03:01:26;;;;;;;8.50;4.03;;;;;;;;;;10567216;27;20403;-78
2023/05/24 03:06:29;;;;;;;8.65;4.63;;;;;;;;;;10583098;27;20405;-78
2023/05/24 03:11:32;;;;;;;;;;;;;;;;;;10572097;27;20044;-78
2023/05/24 03:16:37;;;;;;;7.47;4.00;;;;;;;;;;10567883;27;19920;-77
2023/05/24 03:21:40;;;;;;;9.48;4.75;;;;;;;;;;10575291;27;20043;-77
2023/05/24 03:26:43;;;;;;;7.70;4.10;;;;;;;;;;10570185;27;20373;-79
2023/05/24 03:31:47;;;;;;;9.47;4.27;;;;;;;;;;10583307;27;20046;-78
2023/05/24 03:36:50;;;;;;;7.75;4.18;;;;;;;;;;10572717;27;20035;-78
2023/05/24 03:41:53;;;;;;;7.30;4.60;;;;;;;;;;10576973;27;20047;-77
2023/05/24 03:46:57;;;;;;;10.65;4.35;;;;;;;;;;10570718;27;20039;-78
2023/05/24 03:51:59;;;;;;;8.05;3.80;;;;;;;;;;10574517;27;20039;-78
2023/05/24 03:57:02;;;;;;;9.73;4.32;;;;;;;;;;10575593;27;20062;-78
2023/05/24 04:02:06;;;;;;;8.65;4.05;;;;;;;;;;10564128;27;20198;-78
2023/05/24 04:07:10;;;;;;;9.95;4.65;;;;;;;;;;10578091;27;20532;-78
2023/05/24 04:12:13;;;;;;;8.55;4.22;;;;;;;;;;10574876;27;20435;-78
2023/05/24 04:17:17;;;;;;;9.48;4.22;;;;;;;;;;10574195;27;20040;-78
2023/05/24 04:22:20;;;;;;;9.88;4.72;;;;;;;;;;10576402;27;20047;-78
2023/05/24 04:27:26;;;;;;;8.80;4.65;;;;;;;;;;10565776;27;20477;-78
2023/05/24 04:32:31;;;;;;;11.80;4.57;;;;;;;;;;10578414;27;20402;-78
2023/05/24 04:37:34;;;;;;;12.18;5.25;;;;;;;;;;10568201;27;20093;-78
2023/05/24 04:42:37;;;;;;;7.60;4.20;;;;;;;;;;10570582;27;20518;-78
2023/05/24 04:47:41;;;;;;;8.10;4.03;;;;;;;;;;10569460;27;20050;-76
2023/05/24 04:52:44;;;;;;;9.48;4.13;;;;;;;;;;10565481;27;20542;-76
2023/05/24 04:57:47;;;;;;;9.45;4.05;;;;;;;;;;10561405;27;20071;-77
2023/05/24 05:02:51;;;;;;;5.93;3.67;;;;;;;;;;10555563;27;20043;-78
2023/05/24 05:07:54;;;;;;;6.30;3.63;;;;;;;;;;10566810;27;20077;-79
2023/05/24 05:12:57;;;;;;;7.22;3.50;;;;;;;;;;10565415;27;20050;-79
2023/05/24 05:18:01;;;;;;;6.85;3.65;;;;;;;;;;10573120;27;20067;-79
2023/05/24 05:23:04;;;;;;;8.85;3.97;;;;;;;;;;10571240;27;20401;-79
2023/05/24 05:28:06;;;;;;;8.87;3.47;;;;;;;;;;10577195;27;20509;-78
2023/05/24 05:33:11;;;;;;;7.63;3.33;;;;;;;;;;10546740;27;20500;-80
2023/05/24 05:38:14;;;;;;;8.27;3.80;;;;;;;;;;10568322;27;20130;-80
2023/05/24 05:43:16;;;;;;;11.00;4.07;;;;;;;;;;10567133;27;20195;-78
2023/05/24 05:48:20;;;;;;;9.20;4.40;;;;;;;;;;10573251;27;20036;-78
2023/05/24 05:53:23;;;;;;;7.55;3.75;;;;;;;;;;10559982;27;20446;-79
2023/05/24 05:58:27;;;;;;;9.38;4.15;;;;;;;;;;10557680;27;20050;-79
2023/05/24 06:03:31;;;;;;;9.27;4.60;;;;;;;;;;10562787;27;20046;-78
2023/05/24 06:08:34;;;;;;;10.32;4.95;;;;;;;;;;10566584;27;20043;-78
2023/05/24 06:13:37;;;;;;;9.25;4.72;;;;;;;;;;10563392;27;20268;-77
2023/05/24 06:18:41;;;;;;;8.20;4.53;;;;;;;;;;10570109;27;20052;-78
2023/05/24 06:24:01;;;;;;;10.60;5.20;;;;;;;;;;10561873;27;20277;-79
2023/05/24 06:29:04;;;;;;;;;;;;;;;;;;10559005;28;20036;-78
2023/05/24 06:34:08;;;;;;;10.93;4.85;;;;;;;;;;10562202;28;19953;-78
2023/05/24 06:39:11;;;;;;;10.05;4.82;;;;;;;;;;10562224;28;20047;-78
2023/05/24 06:44:15;;;;;;;6.57;4.22;;;;;;;;;;10560223;28;20047;-79
2023/05/24 06:49:19;;;;;;;10.95;5.07;;;;;;;;;;10560566;28;20674;-79
2023/05/24 06:54:22;;;;;;;10.90;5.13;;;;;;;;;;10558910;28;20047;-78
2023/05/24 06:59:26;;;;;;;9.57;5.15;;;;;;;;;;10539919;28;20039;-80
2023/05/24 07:04:30;;;;;;;8.88;4.38;;;;;;;;;;10565530;28;20121;-79
2023/05/24 07:09:33;;;;;;;8.30;4.18;;;;;;;;;;10569568;28;20531;-79
2023/05/24 07:14:35;;;;;;;6.45;3.83;;;;;;;;;;10556880;28;20043;-78
2023/05/24 07:19:40;;;;;;;8.57;3.92;;;;;;;;;;10558815;28;20148;-78
2023/05/24 07:24:43;;;;;;;9.60;4.78;;;;;;;;;;10563740;27;20046;-80
2023/05/24 07:29:46;;;;;;;8.10;4.28;;;;;;;;;;10570446;27;20118;-80
2023/05/24 07:34:51;;;;;;;9.70;4.78;;;;;;;;;;10575063;27;20065;-78
2023/05/24 07:39:54;;;;;;;8.18;4.38;;;;;;;;;;10571958;27;20113;-79
2023/05/24 07:44:56;;;;;;;8.52;4.22;;;;;;;;;;10561533;27;20078;-77
2023/05/24 07:50:00;;;;;;;8.40;4.70;;;;;;;;;;10574382;27;20067;-79
2023/05/24 07:55:04;;;;;;;8.27;4.72;;;;;;;;;;10550241;27;20082;-77
2023/05/24 08:00:13;;;;;;;7.63;4.50;;;;;;;;;;10563533;27;20085;-78
2023/05/24 08:05:17;;;;;;;12.23;5.55;;;;;;;;;;10557601;27;20050;-78
2023/05/24 08:10:20;;;;;;;10.77;5.10;;;;;;;;;;10545371;27;20024;-79
2023/05/24 08:15:24;;;;;;;8.80;5.57;;;;;;;;;;10568695;27;20039;-79
2023/05/24 08:20:28;;;;;;;9.68;5.13;;;;;;;;;;10566113;27;20037;-78
2023/05/24 08:25:31;;;;;;;8.93;5.50;;;;;;;;;;10575535;27;20138;-78
2023/05/24 08:30:34;;;;;;;9.63;6.10;;;;;;;;;;10575346;27;20056;-80
2023/05/24 08:35:38;;;;;;;11.68;5.78;;;;;;;;;;10562647;27;20071;-80
2023/05/24 08:40:40;;;;;;;9.20;5.57;;;;;;;;;;10562234;27;20036;-78
2023/05/24 08:45:43;;;;;;;9.55;5.65;;;;;;;;;;10561750;27;20057;-78
2023/05/24 08:50:48;;;;;;;8.43;5.15;;;;;;;;;;10566475;27;20542;-77
2023/05/24 08:55:52;;;;;;;8.40;4.68;;;;;;;;;;10564964;27;20067;-81
2023/05/24 09:00:54;;;;;;;12.40;5.40;;;;;;;;;;10565508;27;20032;-78
2023/05/24 09:06:00;;;;;;;11.23;5.55;;;;;;;;;;10565811;27;20461;-78
2023/05/24 09:11:03;;;;;;;11.18;5.35;;;;;;;;;;10565668;27;20088;-80
2023/05/24 09:16:06;;;;;;;10.30;5.50;;;;;;;;;;10569494;27;20039;-79
2023/05/24 09:21:11;;;;;;;8.40;5.15;;;;;;;;;;10563658;27;20627;-79
2023/05/24 09:26:14;;;;;;;8.50;5.72;;;;;;;;;;10559991;27;20042;-78
2023/05/24 09:31:17;;;;;;;11.00;5.93;;;;;;;;;;10546567;27;20040;-78
2023/05/24 09:36:20;;;;;;;;;;;;;;;;;;10567160;27;20082;-78
2023/05/24 09:41:24;;;;;;;12.13;6.43;;;;;;;;;;10572506;27;19926;-78
2023/05/24 09:46:28;;;;;;;14.65;7.10;;;;;;;;;;10561770;27;20130;-79
2023/05/24 09:51:31;;;;;;;13.48;6.20;;;;;;;;;;10562333;27;20043;-79
2023/05/24 09:56:35;;;;;;;11.52;5.78;;;;;;;;;;10548975;27;20036;-79
2023/05/24 10:01:38;;;;;;;10.35;5.68;;;;;;;;;;10566530;27;20092;-80
2023/05/24 10:06:42;;;;;;;9.02;5.65;;;;;;;;;;10569855;27;20461;-79
2023/05/24 10:11:46;;;;;;;10.35;5.72;;;;;;;;;;10565525;27;20039;-79
2023/05/24 10:16:49;;;;;;;14.90;6.60;;;;;;;;;;10560482;27;20449;-80
2023/05/24 10:21:53;;;;;;;10.73;5.80;;;;;;;;;;10563962;27;20488;-79
2023/05/24 10:26:57;;;;;;;13.05;5.65;;;;;;;;;;10563510;27;20484;-79
2023/05/24 10:32:01;;;;;;;16.65;6.63;;;;;;;;;;10564332;28;20032;-79
2023/05/24 10:37:04;;;;;;;15.83;6.83;;;;;;;;;;10570610;28;20376;-79
2023/05/24 10:42:08;;;;;;;13.65;5.75;;;;;;;;;;10558787;28;20807;-79
2023/05/24 10:47:12;;;;;;;11.20;6.63;;;;;;;;;;10557709;28;20241;-79
2023/05/24 10:52:14;;;;;;;10.35;5.82;;;;;;;;;;10550033;28;20131;-79
2023/05/24 10:57:24;;;;;;;12.40;6.23;;;;;;;;;;10558341;27;20074;-79
2023/05/24 11:02:28;;;;;;;11.07;6.07;;;;;;;;;;10562261;27;20043;-78
2023/05/24 11:07:33;;;;;;;12.32;6.53;;;;;;;;;;10569881;27;20492;-79
2023/05/24 11:12:38;;;;;;;12.02;6.53;;;;;;;;;;10569256;27;20601;-79
2023/05/24 11:17:59;;;;;;;12.75;6.60;;;;;;;;;;10560780;27;20028;-79
2023/05/24 11:23:03;;;;;;;14.52;6.57;;;;;;;;;;10568767;27;20040;-78
2023/05/24 11:28:09;;;;;;;9.63;5.70;;;;;;;;;;10570450;27;20647;-79
2023/05/24 11:33:17;;;;;;;9.88;5.85;;;;;;;;;;10571410;27;20105;-78
2023/05/24 11:38:20;;;;;;;11.00;5.90;;;;;;;;;;10566846;27;20043;-79
2023/05/24 11:43:30;;;;;;;8.65;5.43;;;;;;;;;;10568501;27;20067;-77
2023/05/24 11:48:33;;;;;;;11.93;5.40;;;;;;;;;;10560755;27;20477;-78
2023/05/24 11:53:36;;;;;;;10.80;5.13;;;;;;;;;;10563143;27;20035;-78
2023/05/24 11:58:44;;;;;;;11.98;5.57;;;;;;;;;;10560569;27;20489;-78
2023/05/24 12:03:47;;;;;;;9.38;4.88;;;;;;;;;;10552634;27;20057;-78
2023/05/24 12:08:51;;;;;;;11.35;4.70;;;;;;;;;;10563661;27;20050;-78
2023/05/24 12:13:53;;;;;;;;;;;;;;;;;;10563345;27;20058;-79
2023/05/24 12:18:58;;;;;;;10.10;4.50;;;;;;;;;;10551472;27;20018;-78
2023/05/24 12:24:09;;;;;;;11.18;4.25;;;;;;;;;;10569705;27;20074;-79
2023/05/24 12:29:12;;;;;;;8.98;4.07;;;;;;;;;;10578279;27;20336;-78
2023/05/24 12:34:15;;;;;;;;;;;;;;;;;;10572915;27;20039;-78
2023/05/24 12:39:23;;;;;;;7.27;4.00;;;;;;;;;;10569277;27;19927;-78
2023/05/24 12:44:28;;;;;;;10.40;4.15;;;;;;;;;;10564341;27;20059;-76
2023/05/24 12:49:30;;;;;;;10.05;4.60;;;;;;;;;;10573554;27;20039;-79
2023/05/24 12:54:35;;;;;;;12.32;4.30;;;;;;;;;;10563084;27;20043;-78
2023/05/24 12:59:38;;;;;;;8.73;4.10;;;;;;;;;;10562537;27;20142;-78
2023/05/24 13:04:41;;;;;;;7.50;3.63;;;;;;;;;;10560352;27;20130;-78
2023/05/24 13:09:45;;;;;;;13.85;5.50;;;;;;;;;;10567169;27;20071;-77
2023/05/24 13:14:49;;;;;;;7.68;4.18;;;;;;;;;;10562324;27;20050;-78
2023/05/24 13:19:56;;;;;;;9.88;4.10;;;;;;;;;;10570649;27;20038;-79
2023/05/24 13:25:00;;;;;;;8.90;4.03;;;;;;;;;;10565262;27;20042;-77
2023/05/24 13:30:04;;;;;;;10.80;4.50;;;;;;;;;;10571334;27;20039;-77
2023/05/24 13:35:08;;;;;;;12.82;4.97;;;;;;;;;;10572852;27;20106;-78
2023/05/24 13:40:12;;;;;;;13.13;5.20;;;;;;;;;;10563769;27;20063;-79
2023/05/24 13:45:15;;;;;;;10.20;5.00;;;;;;;;;;10563443;27;20598;-77
2023/05/24 13:50:19;;;;;;;11.35;4.72;;;;;;;;;;10569520;27;20512;-77
2023/05/24 13:55:23;;;;;;;12.52;5.15;;;;;;;;;;10561220;27;20043;-78
2023/05/24 14:00:25;;;;;;;11.32;5.22;;;;;;;;;;10579508;27;20096;-80
2023/05/24 14:05:29;;;;;;;15.07;5.50;;;;;;;;;;10572438;27;20049;-78
2023/05/24 14:10:35;;;;;;;10.50;4.97;;;;;;;;;;10567763;27;20042;-77
2023/05/24 14:15:38;;;;;;;12.88;5.00;;;;;;;;;;10573817;27;20059;-79
2023/05/24 14:20:41;;;;;;;16.48;5.15;;;;;;;;;;10572214;27;20486;-78
2023/05/24 14:25:45;;;;;;;;;;;;;;;;;;10567211;27;20047;-78
2023/05/24 14:30:50;;;;;;;10.85;5.22;;;;;;;;;;10561199;28;20023;-78
2023/05/24 14:35:53;;;;;;;12.13;5.53;;;;;;;;;;10567778;28;20035;-79
2023/05/24 14:40:57;;;;;;;14.18;5.20;;;;;;;;;;10569716;28;20557;-78
2023/05/24 14:46:00;;;;;;;11.93;4.47;;;;;;;;;;10556375;28;20051;-79
2023/05/24 14:51:03;;;;;;;11.40;4.97;;;;;;;;;;10559082;28;20093;-78
2023/05/24 14:56:07;;;;;;;11.95;4.75;;;;;;;;;;10559384;28;20044;-78
2023/05/24 15:01:11;;;;;;;9.65;4.72;;;;;;;;;;10557719;28;20376;-77
2023/05/24 15:06:15;;;;;;;11.55;4.00;;;;;;;;;;10549326;28;20120;-78
2023/05/24 15:11:18;;;;;;;8.82;4.38;;;;;;;;;;10557380;28;20198;-77
2023/05/24 15:16:22;;;;;;;8.63;4.40;;;;;;;;;;10552566;28;20438;-78
2023/05/24 15:21:25;;;;;;;7.88;4.20;;;;;;;;;;10574337;28;20458;-77
2023/05/24 15:26:28;;;;;;;12.80;4.15;;;;;;;;;;10556862;28;20043;-77
2023/05/24 15:31:32;;;;;;;9.23;3.75;;;;;;;;;;10563070;28;20040;-78
2023/05/24 15:36:35;;;;;;;8.45;3.80;;;;;;;;;;10557190;28;20522;-78
2023/05/24 15:41:38;;;;;;;7.57;4.00;;;;;;;;;;10551607;28;20418;-78
2023/05/24 15:46:42;;;;;;;9.15;3.83;;;;;;;;;;10534484;27;20059;-78
2023/05/24 15:51:45;;;;;;;7.72;2.38;;;;;;;;;;10564881;27;20043;-79
2023/05/24 15:57:06;;;;;;;8.57;3.95;;;;;;;;;;10566585;27;20048;-78
2023/05/24 16:02:10;;;;;;;7.75;3.90;;;;;;;;;;10557054;27;20745;-80
2023/05/24 16:07:13;;;;;;;9.65;4.25;;;;;;;;;;10548669;27;20040;-79
2023/05/24 16:12:16;;;;;;;8.68;3.92;;;;;;;;;;10564206;27;20430;-79
2023/05/24 16:17:20;;;;;;;10.13;4.70;;;;;;;;;;10559637;27;20062;-79
2023/05/24 16:22:23;;;;;;;12.88;4.57;;;;;;;;;;10574621;27;20047;-78
2023/05/24 16:27:26;;;;;;;12.10;4.75;;;;;;;;;;10566118;27;20523;-79
2023/05/24 16:32:30;;;;;;;9.57;4.28;;;;;;;;;;10571915;27;20202;-78
2023/05/24 16:37:33;;;;;;;7.78;3.75;;;;;;;;;;10573552;27;20511;-77
2023/05/24 16:42:36;;;;;;;;;;;;;;;;;;10564236;27;20046;-78
2023/05/24 16:47:41;;;;;;;8.73;3.85;;;;;;;;;;10559004;27;19930;-77
2023/05/24 16:52:44;;;;;;;10.13;4.18;;;;;;;;;;10559298;27;20121;-78
2023/05/24 16:57:47;;;;;;;12.30;4.25;;;;;;;;;;10565456;27;20496;-77
2023/05/24 17:02:51;;;;;;;8.63;3.90;;;;;;;;;;10564478;27;20640;-78
2023/05/24 17:07:54;;;;;;;12.43;3.33;;;;;;;;;;10560291;27;20041;-79
2023/05/24 17:12:57;;;;;;;9.55;2.83;;;;;;;;;;10558759;27;20130;-77
2023/05/24 17:18:01;;;;;;;13.30;4.67;;;;;;;;;;10605169;27;20048;-79
2023/05/24 17:23:04;;;;;;;17.00;4.60;;;;;;;;;;10610519;27;20091;-78
2023/05/24 17:28:07;;;;;;;11.73;4.13;;;;;;;;;;10596898;27;20070;-76
2023/05/24 17:33:11;;;;;;;13.80;4.70;;;;;;;;;;10608173;27;20031;-77
2023/05/24 17:38:14;;;;;;;11.60;4.65;;;;;;;;;;10605859;27;20102;-78
2023/05/24 17:43:17;;;;;;;8.52;3.97;;;;;;;;;;10588363;27;20484;-78
2023/05/24 17:48:21;;;;;;;9.17;3.97;;;;;;;;;;10574643;27;20070;-78
2023/05/24 17:53:24;;;;;;;12.30;4.93;;;;;;;;;;10578104;27;20070;-79
2023/05/24 17:58:35;;;;;;;9.32;3.78;;;;;;;;;;10559286;27;20395;-79
2023/05/24 18:03:41;;;;;;;13.55;4.22;;;;;;;;;;10568288;27;20114;-77
2023/05/24 18:08:44;;;;;;;14.70;4.38;;;;;;;;;;10569354;27;20052;-79
2023/05/24 18:13:46;;;;;;;12.10;4.28;;;;;;;;;;10545728;27;20032;-77
2023/05/24 18:18:50;;;;;;;9.55;3.67;;;;;;;;;;10585050;27;20078;-78
2023/05/24 18:23:53;;;;;;;10.00;3.88;;;;;;;;;;10572536;27;20139;-79
2023/05/24 18:28:55;;;;;;;8.32;3.28;;;;;;;;;;10557230;27;20043;-78
2023/05/24 18:33:59;;;;;;;8.27;3.28;;;;;;;;;;10562015;28;20058;-79
2023/05/24 18:39:03;;;;;;;9.75;3.13;;;;;;;;;;10560028;28;20071;-79
2023/05/24 18:44:06;;;;;;;11.10;3.30;;;;;;;;;;10562004;28;20127;-78
2023/05/24 18:49:11;;;;;;;6.43;3.13;;;;;;;;;;10545637;28;20032;-78
2023/05/24 18:54:14;;;;;;;9.30;3.58;;;;;;;;;;10580444;28;20070;-79
2023/05/24 18:59:17;;;;;;;10.07;3.65;;;;;;;;;;10586526;28;20298;-77
2023/05/24 19:04:21;;;;;;;11.10;3.85;;;;;;;;;;10587462;28;20054;-78
2023/05/24 19:09:24;;;;;;;12.68;4.65;;;;;;;;;;10594598;28;20044;-78
2023/05/24 19:14:26;;;;;;;9.50;3.38;;;;;;;;;;10585445;28;20062;-79
2023/05/24 19:19:30;;;;;;;11.57;4.15;;;;;;;;;;10570781;27;20065;-78
2023/05/24 19:24:33;;;;;;;10.23;4.30;;;;;;;;;;10577623;27;20127;-77
2023/05/24 19:29:36;;;;;;;10.68;4.28;;;;;;;;;;10571610;27;20471;-79
2023/05/24 19:34:40;;;;;;;11.07;4.47;;;;;;;;;;10581533;27;20041;-78
2023/05/24 19:39:44;;;;;;;13.15;4.03;;;;;;;;;;10572266;27;20070;-78
2023/05/24 19:44:46;;;;;;;11.73;4.88;;;;;;;;;;10578502;27;20032;-78
2023/05/24 19:49:50;;;;;;;13.45;4.55;;;;;;;;;;10572921;27;20105;-79
2023/05/24 19:54:53;;;;;;;9.38;5.20;;;;;;;;;;10580591;27;20078;-79
2023/05/24 19:59:55;;;;;;;14.20;4.60;;;;;;;;;;10571177;27;20067;-78
2023/05/24 20:05:00;;;;;;;9.27;3.77;;;;;;;;;;10578500;27;20063;-79
2023/05/24 20:10:03;;;;;;;11.68;5.15;;;;;;;;;;10578346;27;20047;-77
2023/05/24 20:15:07;;;;;;;13.25;4.25;;;;;;;;;;10565109;27;20040;-79
2023/05/24 20:20:11;;;;;;;7.63;3.80;;;;;;;;;;10568250;27;20523;-78
2023/05/24 20:25:14;;;;;;;10.27;4.13;;;;;;;;;;10567337;27;20042;-78
2023/05/24 20:30:18;;;;;;;12.30;4.22;;;;;;;;;;10585654;27;20085;-80
2023/05/24 20:35:20;;;;;;;;;;;;;;;;;;10594449;27;20050;-78
2023/05/24 20:40:24;;;;;;;11.63;4.10;;;;;;;;;;10563210;27;20300;-78
2023/05/24 20:45:27;;;;;;;12.65;4.10;;;;;;;;;;10573270;27;20465;-78
2023/05/24 20:50:30;;;;;;;9.23;4.00;;;;;;;;;;10593340;27;20043;-77
2023/05/24 20:55:36;;;;;;;12.00;4.40;;;;;;;;;;10580270;27;20048;-80
2023/05/24 21:00:40;;;;;;;13.48;4.45;;;;;;;;;;10583990;27;20504;-78
2023/05/24 21:05:44;;;;;;;9.57;4.25;;;;;;;;;;10610660;27;20617;-78
2023/05/24 21:10:49;;;;;;;10.98;5.15;;;;;;;;;;10604579;27;20055;-79
2023/05/24 21:15:53;;;;;;;10.30;3.63;;;;;;;;;;10609899;27;20054;-79
2023/05/24 21:20:57;;;;;;;11.38;4.00;;;;;;;;;;10609870;27;20044;-77
2023/05/24 21:26:01;;;;;;;12.07;3.85;;;;;;;;;;10610796;27;20051;-81
2023/05/24 21:31:06;;;;;;;9.57;3.70;;;;;;;;;;10618375;27;20059;-76
2023/05/24 21:36:09;;;;;;;9.88;3.85;;;;;;;;;;10615879;27;20054;-79
2023/05/24 21:41:13;;;;;;;13.68;4.47;;;;;;;;;;10616743;27;20039;-78
2023/05/24 21:46:15;;;;;;;15.05;4.15;;;;;;;;;;10602612;27;20040;-79
2023/05/24 21:51:18;;;;;;;9.57;4.07;;;;;;;;;;10618062;27;20523;-79
2023/05/24 21:56:28;;;;;;;11.63;4.00;;;;;;;;;;10604130;27;20039;-79
2023/05/24 22:01:31;;;;;;;12.80;3.90;;;;;;;;;;10608075;27;20569;-79
2023/05/24 22:06:35;;;;;;;8.55;3.30;;;;;;;;;;10608744;27;20035;-77
2023/05/24 22:11:39;;;;;;;9.57;3.92;;;;;;;;;;10603676;27;20038;-77
2023/05/24 22:16:42;;;;;;;9.75;3.28;;;;;;;;;;10619389;27;20043;-78
2023/05/24 22:21:49;;;;;;;8.27;2.90;;;;;;;;;;10586483;27;20043;-78
2023/05/24 22:26:54;;;;;;;8.32;2.47;;;;;;;;;;10582459;27;20130;-78
2023/05/24 22:31:57;;;;;;;6.78;2.53;;;;;;;;;;10572638;27;20044;-78
2023/05/24 22:37:00;;;;;;;8.70;2.65;;;;;;;;;;10562913;28;20044;-78
2023/05/24 22:42:04;;;;;;;8.45;2.95;;;;;;;;;;10572944;28;20051;-78
2023/05/24 22:47:07;;;;;;;8.40;2.38;;;;;;;;;;10577916;28;20493;-79
2023/05/24 22:52:10;;;;;;;10.10;3.07;;;;;;;;;;10578948;28;20034;-77
2023/05/24 22:57:20;;;;;;;7.55;2.30;;;;;;;;;;10582478;27;20441;-79
2023/05/24 23:02:23;;;;;;;12.43;2.78;;;;;;;;;;10572980;27;20063;-79
2023/05/24 23:07:26;;;;;;;5.70;2.47;;;;;;;;;;10588716;27;20093;-78
2023/05/24 23:12:30;;;;;;;9.13;2.92;;;;;;;;;;10572319;27;20044;-79
2023/05/24 23:17:33;;;;;;;7.30;2.42;;;;;;;;;;10574877;27;20071;-79
2023/05/24 23:22:37;;;;;;;7.20;2.60;;;;;;;;;;10582355;27;20391;-78
2023/05/24 23:27:42;;;;;;;4.75;2.10;;;;;;;;;;10584668;27;20146;-79
2023/05/24 23:32:44;;;;;;;5.45;2.53;;;;;;;;;;10576577;27;20039;-79
2023/05/24 23:37:47;;;;;;;5.73;2.33;;;;;;;;;;10574457;27;20048;-79
2023/05/24 23:42:51;;;;;;;9.98;2.70;;;;;;;;;;10586181;27;20408;-78
2023/05/24 23:47:54;;;;;;;8.43;3.08;;;;;;;;;;10603888;27;20027;-79
2023/05/24 23:52:56;;;;;;;8.05;2.90;;;;;;;;;;10615972;27;20034;-80
2023/05/24 23:58:01;;;;;;;14.55;2.60;;;;;;;;;;10613007;27;20028;-80
